sensor_id;sensor_type;location;lat;lon;timestamp;P1;durP1;ratioP1;P2;durP2;ratioP2
10277;SDS011;5184;51.376;7.148;2023-02-28T00:01:43;10.97;;;7.17;;
10277;SDS011;5184;51.376;7.148;2023-02-28T00:04:10;11.20;;;7.60;;
10277;SDS011;5184;51.376;7.148;2023-02-28T00:06:38;11.00;;;7.37;;
10277;SDS011;5184;51.376;7.148;2023-02-28T00:09:04;8.77;;;6.70;;
10277;SDS011;5184;51.376;7.148;2023-02-28T00:11:31;7.00;;;6.03;;
10277;SDS011;5184;51.376;7.148;2023-02-28T00:13:58;9.40;;;6.33;;
10277;SDS011;5184;51.376;7.148;2023-02-28T00:16:25;10.03;;;6.70;;
10277;SDS011;5184;51.376;7.148;2023-02-28T00:18:52;8.93;;;6.67;;
10277;SDS011;5184;51.376;7.148;2023-02-28T00:21:19;9.93;;;6.43;;
10277;SDS011;5184;51.376;7.148;2023-02-28T00:23:45;9.00;;;5.53;;
10277;SDS011;5184;51.376;7.148;2023-02-28T00:26:12;7.07;;;6.07;;
10277;SDS011;5184;51.376;7.148;2023-02-28T00:28:38;9.47;;;5.93;;
10277;SDS011;5184;51.376;7.148;2023-02-28T00:31:05;9.40;;;5.77;;
10277;SDS011;5184;51.376;7.148;2023-02-28T00:33:32;8.70;;;5.77;;
10277;SDS011;5184;51.376;7.148;2023-02-28T00:36:02;7.13;;;5.50;;
10277;SDS011;5184;51.376;7.148;2023-02-28T00:38:30;6.67;;;5.30;;
10277;SDS011;5184;51.376;7.148;2023-02-28T00:40:57;8.13;;;5.97;;
10277;SDS011;5184;51.376;7.148;2023-02-28T00:43:24;8.07;;;5.73;;
10277;SDS011;5184;51.376;7.148;2023-02-28T00:45:51;6.33;;;5.07;;
10277;SDS011;5184;51.376;7.148;2023-02-28T00:48:19;7.83;;;5.50;;
10277;SDS011;5184;51.376;7.148;2023-02-28T00:50:48;9.73;;;5.23;;
10277;SDS011;5184;51.376;7.148;2023-02-28T00:53:13;6.37;;;4.93;;
10277;SDS011;5184;51.376;7.148;2023-02-28T00:55:40;8.37;;;4.80;;
10277;SDS011;5184;51.376;7.148;2023-02-28T00:58:07;9.30;;;5.13;;
10277;SDS011;5184;51.376;7.148;2023-02-28T01:00:33;7.93;;;5.27;;
10277;SDS011;5184;51.376;7.148;2023-02-28T01:03:01;7.67;;;5.20;;
10277;SDS011;5184;51.376;7.148;2023-02-28T01:05:27;8.70;;;5.40;;
10277;SDS011;5184;51.376;7.148;2023-02-28T01:07:54;7.80;;;5.33;;
10277;SDS011;5184;51.376;7.148;2023-02-28T01:10:20;8.60;;;5.80;;
10277;SDS011;5184;51.376;7.148;2023-02-28T01:12:48;10.03;;;5.50;;
10277;SDS011;5184;51.376;7.148;2023-02-28T01:15:15;11.47;;;5.13;;
10277;SDS011;5184;51.376;7.148;2023-02-28T01:17:42;10.40;;;5.40;;
10277;SDS011;5184;51.376;7.148;2023-02-28T01:20:09;9.60;;;5.60;;
10277;SDS011;5184;51.376;7.148;2023-02-28T01:22:36;10.57;;;5.90;;
10277;SDS011;5184;51.376;7.148;2023-02-28T01:25:03;7.27;;;5.50;;
10277;SDS011;5184;51.376;7.148;2023-02-28T01:27:30;9.37;;;6.00;;
10277;SDS011;5184;51.376;7.148;2023-02-28T01:29:57;7.90;;;5.87;;
10277;SDS011;5184;51.376;7.148;2023-02-28T01:32:23;7.77;;;5.87;;
10277;SDS011;5184;51.376;7.148;2023-02-28T01:34:50;10.63;;;5.47;;
10277;SDS011;5184;51.376;7.148;2023-02-28T01:37:17;7.60;;;5.77;;
10277;SDS011;5184;51.376;7.148;2023-02-28T01:39:44;10.20;;;7.00;;
10277;SDS011;5184;51.376;7.148;2023-02-28T01:42:11;9.47;;;6.23;;
10277;SDS011;5184;51.376;7.148;2023-02-28T01:47:17;8.03;;;6.03;;
10277;SDS011;5184;51.376;7.148;2023-02-28T01:49:44;8.53;;;6.20;;
10277;SDS011;5184;51.376;7.148;2023-02-28T01:52:10;11.10;;;5.80;;
10277;SDS011;5184;51.376;7.148;2023-02-28T01:54:41;8.83;;;6.00;;
10277;SDS011;5184;51.376;7.148;2023-02-28T01:57:09;8.77;;;5.90;;
10277;SDS011;5184;51.376;7.148;2023-02-28T01:59:37;8.13;;;5.77;;
10277;SDS011;5184;51.376;7.148;2023-02-28T02:02:05;8.93;;;6.03;;
10277;SDS011;5184;51.376;7.148;2023-02-28T02:04:34;11.13;;;6.10;;
10277;SDS011;5184;51.376;7.148;2023-02-28T02:06:59;12.57;;;7.13;;
10277;SDS011;5184;51.376;7.148;2023-02-28T02:09:25;8.70;;;5.93;;
10277;SDS011;5184;51.376;7.148;2023-02-28T02:11:53;7.67;;;5.93;;
10277;SDS011;5184;51.376;7.148;2023-02-28T02:14:29;8.03;;;6.13;;
10277;SDS011;5184;51.376;7.148;2023-02-28T02:25:38;7.60;;;5.87;;
10277;SDS011;5184;51.376;7.148;2023-02-28T02:29:17;7.63;;;5.37;;
10277;SDS011;5184;51.376;7.148;2023-02-28T02:33:45;9.53;;;6.40;;
10277;SDS011;5184;51.376;7.148;2023-02-28T02:36:27;7.87;;;5.40;;
10277;SDS011;5184;51.376;7.148;2023-02-28T02:39:01;9.63;;;6.27;;
10277;SDS011;5184;51.376;7.148;2023-02-28T02:41:29;7.57;;;5.80;;
10277;SDS011;5184;51.376;7.148;2023-02-28T02:43:57;7.90;;;5.90;;
10277;SDS011;5184;51.376;7.148;2023-02-28T02:46:26;7.60;;;5.70;;
10277;SDS011;5184;51.376;7.148;2023-02-28T02:48:53;7.37;;;5.63;;
10277;SDS011;5184;51.376;7.148;2023-02-28T02:51:20;8.83;;;5.93;;
10277;SDS011;5184;51.376;7.148;2023-02-28T02:53:48;7.10;;;5.73;;
10277;SDS011;5184;51.376;7.148;2023-02-28T02:56:13;8.97;;;5.33;;
10277;SDS011;5184;51.376;7.148;2023-02-28T02:58:41;8.50;;;5.40;;
10277;SDS011;5184;51.376;7.148;2023-02-28T03:01:08;8.50;;;5.47;;
10277;SDS011;5184;51.376;7.148;2023-02-28T03:03:35;8.53;;;5.30;;
10277;SDS011;5184;51.376;7.148;2023-02-28T03:06:02;8.67;;;5.20;;
10277;SDS011;5184;51.376;7.148;2023-02-28T03:08:30;7.77;;;5.50;;
10277;SDS011;5184;51.376;7.148;2023-02-28T03:10:57;8.43;;;5.57;;
10277;SDS011;5184;51.376;7.148;2023-02-28T03:13:59;8.97;;;5.30;;
10277;SDS011;5184;51.376;7.148;2023-02-28T03:17:16;9.90;;;5.13;;
10277;SDS011;5184;51.376;7.148;2023-02-28T03:21:43;7.90;;;5.10;;
10277;SDS011;5184;51.376;7.148;2023-02-28T03:24:11;7.93;;;5.17;;
10277;SDS011;5184;51.376;7.148;2023-02-28T03:26:39;7.60;;;5.30;;
10277;SDS011;5184;51.376;7.148;2023-02-28T03:29:14;7.13;;;5.07;;
10277;SDS011;5184;51.376;7.148;2023-02-28T03:31:45;8.60;;;5.10;;
10277;SDS011;5184;51.376;7.148;2023-02-28T03:34:14;6.70;;;4.70;;
10277;SDS011;5184;51.376;7.148;2023-02-28T03:36:42;8.27;;;5.03;;
10277;SDS011;5184;51.376;7.148;2023-02-28T03:39:13;6.57;;;4.97;;
10277;SDS011;5184;51.376;7.148;2023-02-28T03:42:04;7.43;;;4.97;;
10277;SDS011;5184;51.376;7.148;2023-02-28T03:44:32;7.13;;;5.17;;
10277;SDS011;5184;51.376;7.148;2023-02-28T03:47:00;7.60;;;5.00;;
10277;SDS011;5184;51.376;7.148;2023-02-28T03:49:27;10.13;;;5.50;;
10277;SDS011;5184;51.376;7.148;2023-02-28T03:51:53;8.50;;;4.60;;
10277;SDS011;5184;51.376;7.148;2023-02-28T03:54:23;7.37;;;5.23;;
10277;SDS011;5184;51.376;7.148;2023-02-28T03:56:50;5.97;;;4.40;;
10277;SDS011;5184;51.376;7.148;2023-02-28T03:59:17;6.43;;;4.97;;
10277;SDS011;5184;51.376;7.148;2023-02-28T04:01:43;6.23;;;4.87;;
10277;SDS011;5184;51.376;7.148;2023-02-28T04:04:10;8.17;;;4.80;;
10277;SDS011;5184;51.376;7.148;2023-02-28T04:06:37;8.13;;;4.93;;
10277;SDS011;5184;51.376;7.148;2023-02-28T04:09:04;7.53;;;5.27;;
10277;SDS011;5184;51.376;7.148;2023-02-28T04:11:32;6.80;;;4.70;;
10277;SDS011;5184;51.376;7.148;2023-02-28T04:13:57;6.63;;;4.43;;
10277;SDS011;5184;51.376;7.148;2023-02-28T04:16:24;10.00;;;5.00;;
10277;SDS011;5184;51.376;7.148;2023-02-28T04:18:50;6.13;;;4.90;;
10277;SDS011;5184;51.376;7.148;2023-02-28T04:21:17;6.43;;;4.83;;
10277;SDS011;5184;51.376;7.148;2023-02-28T04:23:47;8.70;;;4.97;;
10277;SDS011;5184;51.376;7.148;2023-02-28T04:26:14;8.50;;;5.27;;
10277;SDS011;5184;51.376;7.148;2023-02-28T04:28:41;8.53;;;5.07;;
10277;SDS011;5184;51.376;7.148;2023-02-28T04:31:09;7.40;;;4.70;;
10277;SDS011;5184;51.376;7.148;2023-02-28T04:33:36;10.57;;;5.10;;
10277;SDS011;5184;51.376;7.148;2023-02-28T04:36:03;5.80;;;4.70;;
10277;SDS011;5184;51.376;7.148;2023-02-28T04:38:31;7.07;;;4.67;;
10277;SDS011;5184;51.376;7.148;2023-02-28T04:40:56;5.87;;;4.90;;
10277;SDS011;5184;51.376;7.148;2023-02-28T04:43:23;6.13;;;4.77;;
10277;SDS011;5184;51.376;7.148;2023-02-28T04:45:49;5.07;;;4.10;;
10277;SDS011;5184;51.376;7.148;2023-02-28T04:48:16;6.97;;;4.53;;
10277;SDS011;5184;51.376;7.148;2023-02-28T04:50:43;5.73;;;4.53;;
10277;SDS011;5184;51.376;7.148;2023-02-28T04:53:10;7.03;;;4.53;;
10277;SDS011;5184;51.376;7.148;2023-02-28T04:55:37;7.87;;;4.43;;
10277;SDS011;5184;51.376;7.148;2023-02-28T04:58:03;7.37;;;4.80;;
10277;SDS011;5184;51.376;7.148;2023-02-28T05:00:30;8.57;;;4.80;;
10277;SDS011;5184;51.376;7.148;2023-02-28T05:02:57;6.33;;;4.60;;
10277;SDS011;5184;51.376;7.148;2023-02-28T05:05:25;6.37;;;4.77;;
10277;SDS011;5184;51.376;7.148;2023-02-28T05:07:51;8.03;;;4.80;;
10277;SDS011;5184;51.376;7.148;2023-02-28T05:10:18;8.57;;;5.27;;
10277;SDS011;5184;51.376;7.148;2023-02-28T05:12:44;6.40;;;5.80;;
10277;SDS011;5184;51.376;7.148;2023-02-28T05:15:12;7.03;;;5.00;;
10277;SDS011;5184;51.376;7.148;2023-02-28T05:17:38;7.70;;;5.43;;
10277;SDS011;5184;51.376;7.148;2023-02-28T05:20:05;9.57;;;5.20;;
10277;SDS011;5184;51.376;7.148;2023-02-28T05:22:32;7.07;;;5.03;;
10277;SDS011;5184;51.376;7.148;2023-02-28T05:25:00;7.50;;;5.07;;
10277;SDS011;5184;51.376;7.148;2023-02-28T05:27:26;9.13;;;5.17;;
10277;SDS011;5184;51.376;7.148;2023-02-28T05:29:54;7.97;;;4.80;;
10277;SDS011;5184;51.376;7.148;2023-02-28T05:32:21;6.27;;;4.70;;
10277;SDS011;5184;51.376;7.148;2023-02-28T05:34:48;8.03;;;4.80;;
10277;SDS011;5184;51.376;7.148;2023-02-28T05:37:15;6.53;;;4.97;;
10277;SDS011;5184;51.376;7.148;2023-02-28T05:39:41;6.10;;;4.90;;
10277;SDS011;5184;51.376;7.148;2023-02-28T05:42:08;8.40;;;4.93;;
10277;SDS011;5184;51.376;7.148;2023-02-28T05:44:34;8.37;;;4.67;;
10277;SDS011;5184;51.376;7.148;2023-02-28T05:47:01;7.40;;;4.50;;
10277;SDS011;5184;51.376;7.148;2023-02-28T05:49:28;6.83;;;4.80;;
10277;SDS011;5184;51.376;7.148;2023-02-28T05:51:55;5.73;;;4.20;;
10277;SDS011;5184;51.376;7.148;2023-02-28T05:54:21;6.40;;;4.67;;
10277;SDS011;5184;51.376;7.148;2023-02-28T05:56:48;6.20;;;4.57;;
10277;SDS011;5184;51.376;7.148;2023-02-28T05:59:15;7.77;;;4.70;;
10277;SDS011;5184;51.376;7.148;2023-02-28T06:01:42;6.07;;;4.07;;
10277;SDS011;5184;51.376;7.148;2023-02-28T06:04:09;5.70;;;4.57;;
10277;SDS011;5184;51.376;7.148;2023-02-28T06:06:35;6.27;;;3.90;;
10277;SDS011;5184;51.376;7.148;2023-02-28T06:09:03;4.97;;;4.00;;
10277;SDS011;5184;51.376;7.148;2023-02-28T06:11:30;6.27;;;4.60;;
10277;SDS011;5184;51.376;7.148;2023-02-28T06:13:57;7.00;;;4.60;;
10277;SDS011;5184;51.376;7.148;2023-02-28T06:16:23;7.40;;;4.47;;
10277;SDS011;5184;51.376;7.148;2023-02-28T06:18:50;7.80;;;4.47;;
10277;SDS011;5184;51.376;7.148;2023-02-28T06:21:16;4.90;;;4.07;;
10277;SDS011;5184;51.376;7.148;2023-02-28T06:23:43;6.67;;;4.03;;
10277;SDS011;5184;51.376;7.148;2023-02-28T06:26:10;5.43;;;4.23;;
10277;SDS011;5184;51.376;7.148;2023-02-28T06:28:38;6.37;;;4.73;;
10277;SDS011;5184;51.376;7.148;2023-02-28T06:31:07;5.57;;;4.57;;
10277;SDS011;5184;51.376;7.148;2023-02-28T06:33:36;5.53;;;4.60;;
10277;SDS011;5184;51.376;7.148;2023-02-28T06:36:02;6.27;;;4.83;;
10277;SDS011;5184;51.376;7.148;2023-02-28T06:38:28;7.40;;;4.40;;
10277;SDS011;5184;51.376;7.148;2023-02-28T06:40:56;7.00;;;4.37;;
10277;SDS011;5184;51.376;7.148;2023-02-28T06:43:22;8.30;;;4.80;;
10277;SDS011;5184;51.376;7.148;2023-02-28T06:45:48;8.87;;;4.80;;
10277;SDS011;5184;51.376;7.148;2023-02-28T06:48:15;6.27;;;4.80;;
10277;SDS011;5184;51.376;7.148;2023-02-28T06:50:42;6.47;;;4.10;;
10277;SDS011;5184;51.376;7.148;2023-02-28T06:53:09;7.43;;;4.70;;
10277;SDS011;5184;51.376;7.148;2023-02-28T06:55:37;7.40;;;4.97;;
10277;SDS011;5184;51.376;7.148;2023-02-28T06:58:04;6.40;;;5.17;;
10277;SDS011;5184;51.376;7.148;2023-02-28T07:00:30;7.50;;;4.57;;
10277;SDS011;5184;51.376;7.148;2023-02-28T07:02:57;5.80;;;4.30;;
10277;SDS011;5184;51.376;7.148;2023-02-28T07:05:25;7.07;;;4.87;;
10277;SDS011;5184;51.376;7.148;2023-02-28T07:07:51;10.73;;;5.43;;
10277;SDS011;5184;51.376;7.148;2023-02-28T07:10:18;6.87;;;5.10;;
10277;SDS011;5184;51.376;7.148;2023-02-28T07:12:44;5.80;;;4.50;;
10277;SDS011;5184;51.376;7.148;2023-02-28T07:15:11;6.00;;;4.77;;
10277;SDS011;5184;51.376;7.148;2023-02-28T07:17:38;8.73;;;4.90;;
10277;SDS011;5184;51.376;7.148;2023-02-28T07:20:04;6.97;;;5.00;;
10277;SDS011;5184;51.376;7.148;2023-02-28T07:22:32;5.83;;;4.90;;
10277;SDS011;5184;51.376;7.148;2023-02-28T07:24:59;7.47;;;4.90;;
10277;SDS011;5184;51.376;7.148;2023-02-28T07:27:25;6.17;;;5.00;;
10277;SDS011;5184;51.376;7.148;2023-02-28T07:29:53;6.83;;;4.63;;
10277;SDS011;5184;51.376;7.148;2023-02-28T07:32:20;9.77;;;5.83;;
10277;SDS011;5184;51.376;7.148;2023-02-28T07:34:47;7.23;;;5.17;;
10277;SDS011;5184;51.376;7.148;2023-02-28T07:37:13;7.63;;;4.57;;
10277;SDS011;5184;51.376;7.148;2023-02-28T07:39:40;6.20;;;5.30;;
10277;SDS011;5184;51.376;7.148;2023-02-28T07:42:07;6.17;;;4.60;;
10277;SDS011;5184;51.376;7.148;2023-02-28T07:44:34;9.07;;;6.23;;
10277;SDS011;5184;51.376;7.148;2023-02-28T07:47:01;7.40;;;5.57;;
10277;SDS011;5184;51.376;7.148;2023-02-28T07:49:27;6.80;;;5.07;;
10277;SDS011;5184;51.376;7.148;2023-02-28T07:51:54;8.23;;;5.23;;
10277;SDS011;5184;51.376;7.148;2023-02-28T07:54:21;5.50;;;4.90;;
10277;SDS011;5184;51.376;7.148;2023-02-28T07:56:47;8.30;;;5.63;;
10277;SDS011;5184;51.376;7.148;2023-02-28T07:59:15;8.60;;;6.07;;
10277;SDS011;5184;51.376;7.148;2023-02-28T08:01:42;7.23;;;5.00;;
10277;SDS011;5184;51.376;7.148;2023-02-28T08:04:09;7.43;;;5.30;;
10277;SDS011;5184;51.376;7.148;2023-02-28T08:06:35;8.93;;;5.70;;
10277;SDS011;5184;51.376;7.148;2023-02-28T08:09:03;7.80;;;5.77;;
10277;SDS011;5184;51.376;7.148;2023-02-28T08:11:29;7.97;;;6.13;;
10277;SDS011;5184;51.376;7.148;2023-02-28T08:13:57;9.27;;;6.40;;
10277;SDS011;5184;51.376;7.148;2023-02-28T08:16:24;7.93;;;5.93;;
10277;SDS011;5184;51.376;7.148;2023-02-28T08:18:51;10.90;;;6.43;;
10277;SDS011;5184;51.376;7.148;2023-02-28T08:21:18;9.13;;;6.50;;
10277;SDS011;5184;51.376;7.148;2023-02-28T08:23:46;11.20;;;6.43;;
10277;SDS011;5184;51.376;7.148;2023-02-28T08:26:12;9.10;;;5.97;;
10277;SDS011;5184;51.376;7.148;2023-02-28T08:28:40;9.97;;;7.60;;
10277;SDS011;5184;51.376;7.148;2023-02-28T08:31:07;8.80;;;5.70;;
10277;SDS011;5184;51.376;7.148;2023-02-28T08:33:34;8.53;;;5.93;;
10277;SDS011;5184;51.376;7.148;2023-02-28T08:36:00;10.00;;;5.63;;
10277;SDS011;5184;51.376;7.148;2023-02-28T08:38:27;8.37;;;6.00;;
10277;SDS011;5184;51.376;7.148;2023-02-28T08:40:58;10.07;;;7.00;;
10277;SDS011;5184;51.376;7.148;2023-02-28T08:43:25;9.90;;;6.80;;
10277;SDS011;5184;51.376;7.148;2023-02-28T08:45:52;9.87;;;6.60;;
10277;SDS011;5184;51.376;7.148;2023-02-28T08:48:19;7.90;;;5.90;;
10277;SDS011;5184;51.376;7.148;2023-02-28T08:51:02;6.93;;;5.87;;
10277;SDS011;5184;51.376;7.148;2023-02-28T08:53:28;6.90;;;5.30;;
10277;SDS011;5184;51.376;7.148;2023-02-28T08:55:58;7.77;;;5.97;;
10277;SDS011;5184;51.376;7.148;2023-02-28T08:58:24;10.33;;;5.40;;
10277;SDS011;5184;51.376;7.148;2023-02-28T09:00:52;6.90;;;5.10;;
10277;SDS011;5184;51.376;7.148;2023-02-28T09:03:19;6.53;;;5.13;;
10277;SDS011;5184;51.376;7.148;2023-02-28T09:08:21;8.50;;;5.37;;
10277;SDS011;5184;51.376;7.148;2023-02-28T09:10:48;8.73;;;5.27;;
10277;SDS011;5184;51.376;7.148;2023-02-28T09:13:16;6.90;;;5.27;;
10277;SDS011;5184;51.376;7.148;2023-02-28T09:15:43;7.13;;;4.87;;
10277;SDS011;5184;51.376;7.148;2023-02-28T09:18:10;5.97;;;4.87;;
10277;SDS011;5184;51.376;7.148;2023-02-28T09:20:37;6.67;;;4.03;;
10277;SDS011;5184;51.376;7.148;2023-02-28T09:23:03;9.67;;;5.03;;
10277;SDS011;5184;51.376;7.148;2023-02-28T09:25:30;6.53;;;4.73;;
10277;SDS011;5184;51.376;7.148;2023-02-28T09:27:57;6.77;;;4.10;;
10277;SDS011;5184;51.376;7.148;2023-02-28T09:30:25;4.93;;;4.03;;
10277;SDS011;5184;51.376;7.148;2023-02-28T09:32:52;7.23;;;4.50;;
10277;SDS011;5184;51.376;7.148;2023-02-28T09:35:21;5.97;;;4.10;;
10277;SDS011;5184;51.376;7.148;2023-02-28T09:37:47;5.20;;;4.03;;
10277;SDS011;5184;51.376;7.148;2023-02-28T09:40:14;4.27;;;3.50;;
10277;SDS011;5184;51.376;7.148;2023-02-28T09:42:41;5.30;;;3.97;;
10277;SDS011;5184;51.376;7.148;2023-02-28T09:45:13;4.13;;;3.60;;
10277;SDS011;5184;51.376;7.148;2023-02-28T09:47:40;4.00;;;3.60;;
10277;SDS011;5184;51.376;7.148;2023-02-28T09:50:22;6.77;;;3.73;;
10277;SDS011;5184;51.376;7.148;2023-02-28T09:52:48;6.17;;;3.87;;
10277;SDS011;5184;51.376;7.148;2023-02-28T09:57:58;5.40;;;3.70;;
10277;SDS011;5184;51.376;7.148;2023-02-28T10:00:27;5.03;;;3.50;;
10277;SDS011;5184;51.376;7.148;2023-02-28T10:03:14;4.73;;;3.40;;
10277;SDS011;5184;51.376;7.148;2023-02-28T10:05:59;4.60;;;3.60;;
10277;SDS011;5184;51.376;7.148;2023-02-28T10:08:44;4.53;;;3.33;;
10277;SDS011;5184;51.376;7.148;2023-02-28T10:11:13;4.23;;;3.40;;
10277;SDS011;5184;51.376;7.148;2023-02-28T10:13:45;4.57;;;3.17;;
10277;SDS011;5184;51.376;7.148;2023-02-28T10:16:13;4.13;;;3.30;;
10277;SDS011;5184;51.376;7.148;2023-02-28T10:18:42;3.90;;;3.10;;
10277;SDS011;5184;51.376;7.148;2023-02-28T10:21:10;4.30;;;3.30;;
10277;SDS011;5184;51.376;7.148;2023-02-28T10:23:34;4.13;;;3.20;;
10277;SDS011;5184;51.376;7.148;2023-02-28T10:26:08;3.00;;;2.63;;
10277;SDS011;5184;51.376;7.148;2023-02-28T10:28:45;3.17;;;2.30;;
10277;SDS011;5184;51.376;7.148;2023-02-28T10:31:15;3.47;;;2.43;;
10277;SDS011;5184;51.376;7.148;2023-02-28T10:33:41;2.40;;;2.20;;
10277;SDS011;5184;51.376;7.148;2023-02-28T10:36:08;2.57;;;2.30;;
10277;SDS011;5184;51.376;7.148;2023-02-28T10:38:36;2.47;;;2.27;;
10277;SDS011;5184;51.376;7.148;2023-02-28T10:41:05;3.60;;;2.70;;
10277;SDS011;5184;51.376;7.148;2023-02-28T10:43:31;3.53;;;2.30;;
10277;SDS011;5184;51.376;7.148;2023-02-28T10:46:03;3.70;;;2.40;;
10277;SDS011;5184;51.376;7.148;2023-02-28T10:48:32;2.70;;;2.30;;
10277;SDS011;5184;51.376;7.148;2023-02-28T10:50:58;2.63;;;2.27;;
10277;SDS011;5184;51.376;7.148;2023-02-28T10:53:31;2.57;;;2.30;;
10277;SDS011;5184;51.376;7.148;2023-02-28T10:56:14;3.90;;;2.20;;
10277;SDS011;5184;51.376;7.148;2023-02-28T10:58:46;3.70;;;2.10;;
10277;SDS011;5184;51.376;7.148;2023-02-28T11:01:16;3.30;;;1.80;;
10277;SDS011;5184;51.376;7.148;2023-02-28T11:03:41;3.47;;;2.10;;
10277;SDS011;5184;51.376;7.148;2023-02-28T11:06:25;1.70;;;1.60;;
10277;SDS011;5184;51.376;7.148;2023-02-28T11:08:52;3.00;;;2.03;;
10277;SDS011;5184;51.376;7.148;2023-02-28T11:11:18;3.27;;;2.17;;
10277;SDS011;5184;51.376;7.148;2023-02-28T11:13:45;3.20;;;2.00;;
10277;SDS011;5184;51.376;7.148;2023-02-28T11:16:12;2.50;;;1.97;;
10277;SDS011;5184;51.376;7.148;2023-02-28T11:21:22;2.40;;;2.03;;
10277;SDS011;5184;51.376;7.148;2023-02-28T11:23:49;2.97;;;1.73;;
10277;SDS011;5184;51.376;7.148;2023-02-28T11:26:16;5.63;;;2.10;;
10277;SDS011;5184;51.376;7.148;2023-02-28T11:28:43;2.67;;;1.73;;
10277;SDS011;5184;51.376;7.148;2023-02-28T11:31:16;3.33;;;2.30;;
10277;SDS011;5184;51.376;7.148;2023-02-28T11:33:47;4.93;;;1.90;;
10277;SDS011;5184;51.376;7.148;2023-02-28T11:36:15;2.50;;;2.10;;
10277;SDS011;5184;51.376;7.148;2023-02-28T11:38:40;3.10;;;1.93;;
10277;SDS011;5184;51.376;7.148;2023-02-28T11:41:11;2.00;;;1.77;;
10277;SDS011;5184;51.376;7.148;2023-02-28T11:43:44;2.63;;;2.03;;
10277;SDS011;5184;51.376;7.148;2023-02-28T11:46:16;2.60;;;2.20;;
10277;SDS011;5184;51.376;7.148;2023-02-28T11:48:58;2.60;;;2.10;;
10277;SDS011;5184;51.376;7.148;2023-02-28T11:51:26;2.27;;;2.00;;
10277;SDS011;5184;51.376;7.148;2023-02-28T11:53:52;2.20;;;2.00;;
10277;SDS011;5184;51.376;7.148;2023-02-28T11:56:31;2.40;;;1.90;;
10277;SDS011;5184;51.376;7.148;2023-02-28T11:59:22;2.33;;;1.93;;
10277;SDS011;5184;51.376;7.148;2023-02-28T12:02:01;2.57;;;2.10;;
10277;SDS011;5184;51.376;7.148;2023-02-28T12:04:33;4.70;;;2.17;;
10277;SDS011;5184;51.376;7.148;2023-02-28T12:07:03;2.63;;;1.87;;
10277;SDS011;5184;51.376;7.148;2023-02-28T12:20:01;2.47;;;2.27;;
10277;SDS011;5184;51.376;7.148;2023-02-28T12:22:27;3.13;;;2.20;;
10277;SDS011;5184;51.376;7.148;2023-02-28T12:27:37;4.43;;;2.37;;
10277;SDS011;5184;51.376;7.148;2023-02-28T12:30:03;3.23;;;2.00;;
10277;SDS011;5184;51.376;7.148;2023-02-28T12:32:31;4.33;;;2.43;;
10277;SDS011;5184;51.376;7.148;2023-02-28T12:34:58;2.67;;;2.23;;
10277;SDS011;5184;51.376;7.148;2023-02-28T12:37:29;2.50;;;2.30;;
10277;SDS011;5184;51.376;7.148;2023-02-28T12:39:55;3.70;;;2.50;;
10277;SDS011;5184;51.376;7.148;2023-02-28T12:42:26;3.03;;;2.37;;
10277;SDS011;5184;51.376;7.148;2023-02-28T12:44:54;2.53;;;2.33;;
10277;SDS011;5184;51.376;7.148;2023-02-28T12:47:19;3.13;;;2.33;;
10277;SDS011;5184;51.376;7.148;2023-02-28T12:49:48;2.87;;;2.50;;
10277;SDS011;5184;51.376;7.148;2023-02-28T12:52:16;3.67;;;2.60;;
10277;SDS011;5184;51.376;7.148;2023-02-28T12:54:44;3.77;;;2.40;;
10277;SDS011;5184;51.376;7.148;2023-02-28T12:57:18;3.97;;;2.80;;
10277;SDS011;5184;51.376;7.148;2023-02-28T12:59:46;3.40;;;2.17;;
10277;SDS011;5184;51.376;7.148;2023-02-28T13:02:24;2.60;;;2.20;;
10277;SDS011;5184;51.376;7.148;2023-02-28T13:05:05;3.70;;;2.47;;
10277;SDS011;5184;51.376;7.148;2023-02-28T13:10:22;2.67;;;2.10;;
10277;SDS011;5184;51.376;7.148;2023-02-28T13:12:49;3.07;;;2.50;;
10277;SDS011;5184;51.376;7.148;2023-02-28T13:15:18;2.70;;;2.20;;
10277;SDS011;5184;51.376;7.148;2023-02-28T13:17:43;2.73;;;2.13;;
10277;SDS011;5184;51.376;7.148;2023-02-28T13:20:17;4.27;;;3.37;;
10277;SDS011;5184;51.376;7.148;2023-02-28T13:22:45;3.33;;;2.20;;
10277;SDS011;5184;51.376;7.148;2023-02-28T13:28:06;3.13;;;2.50;;
10277;SDS011;5184;51.376;7.148;2023-02-28T13:35:47;3.57;;;3.20;;
10277;SDS011;5184;51.376;7.148;2023-02-28T13:38:15;3.73;;;3.00;;
10277;SDS011;5184;51.376;7.148;2023-02-28T13:40:41;4.10;;;2.43;;
10277;SDS011;5184;51.376;7.148;2023-02-28T13:43:08;3.73;;;2.97;;
10277;SDS011;5184;51.376;7.148;2023-02-28T13:45:34;3.00;;;2.73;;
10277;SDS011;5184;51.376;7.148;2023-02-28T13:48:02;3.50;;;3.20;;
10277;SDS011;5184;51.376;7.148;2023-02-28T13:50:29;4.75;;;3.20;;
10277;SDS011;5184;51.376;7.148;2023-02-28T13:53:30;6.43;;;4.33;;
10277;SDS011;5184;51.376;7.148;2023-02-28T14:01:16;4.40;;;3.47;;
10277;SDS011;5184;51.376;7.148;2023-02-28T14:06:33;4.20;;;2.93;;
10277;SDS011;5184;51.376;7.148;2023-02-28T14:09:02;3.47;;;2.93;;
10277;SDS011;5184;51.376;7.148;2023-02-28T14:11:32;3.80;;;2.70;;
10277;SDS011;5184;51.376;7.148;2023-02-28T14:13:58;4.87;;;3.33;;
10277;SDS011;5184;51.376;7.148;2023-02-28T14:16:25;3.97;;;3.30;;
10277;SDS011;5184;51.376;7.148;2023-02-28T14:18:56;4.47;;;3.07;;
10277;SDS011;5184;51.376;7.148;2023-02-28T14:21:30;3.80;;;3.30;;
10277;SDS011;5184;51.376;7.148;2023-02-28T14:32:27;3.47;;;2.70;;
10277;SDS011;5184;51.376;7.148;2023-02-28T14:35:03;3.13;;;2.83;;
10277;SDS011;5184;51.376;7.148;2023-02-28T14:37:33;3.13;;;2.83;;
10277;SDS011;5184;51.376;7.148;2023-02-28T14:39:59;3.93;;;3.47;;
10277;SDS011;5184;51.376;7.148;2023-02-28T14:42:29;3.10;;;2.77;;
10277;SDS011;5184;51.376;7.148;2023-02-28T14:44:58;3.20;;;2.90;;
10277;SDS011;5184;51.376;7.148;2023-02-28T14:47:28;3.70;;;2.57;;
10277;SDS011;5184;51.376;7.148;2023-02-28T14:49:54;3.00;;;2.70;;
10277;SDS011;5184;51.376;7.148;2023-02-28T14:52:21;4.10;;;2.73;;
10277;SDS011;5184;51.376;7.148;2023-02-28T14:54:51;3.13;;;2.73;;
10277;SDS011;5184;51.376;7.148;2023-02-28T14:57:28;5.20;;;2.63;;
10277;SDS011;5184;51.376;7.148;2023-02-28T15:00:30;3.43;;;3.13;;
10277;SDS011;5184;51.376;7.148;2023-02-28T15:02:40;3.28;;;2.97;;
10277;SDS011;5184;51.376;7.148;2023-02-28T15:05:39;4.13;;;3.20;;
10277;SDS011;5184;51.376;7.148;2023-02-28T15:07:49;4.07;;;3.23;;
10277;SDS011;5184;51.376;7.148;2023-02-28T15:10:16;3.90;;;2.80;;
10277;SDS011;5184;51.376;7.148;2023-02-28T15:12:51;3.27;;;2.97;;
10277;SDS011;5184;51.376;7.148;2023-02-28T15:15:40;3.83;;;3.17;;
10277;SDS011;5184;51.376;7.148;2023-02-28T15:18:15;3.73;;;3.17;;
10277;SDS011;5184;51.376;7.148;2023-02-28T15:20:59;5.00;;;3.47;;
10277;SDS011;5184;51.376;7.148;2023-02-28T15:23:26;3.67;;;3.37;;
10277;SDS011;5184;51.376;7.148;2023-02-28T15:25:53;3.70;;;3.40;;
10277;SDS011;5184;51.376;7.148;2023-02-28T15:28:21;3.33;;;3.03;;
10277;SDS011;5184;51.376;7.148;2023-02-28T15:30:55;3.40;;;3.10;;
10277;SDS011;5184;51.376;7.148;2023-02-28T15:33:23;6.20;;;3.17;;
10277;SDS011;5184;51.376;7.148;2023-02-28T15:35:49;4.03;;;2.60;;
10277;SDS011;5184;51.376;7.148;2023-02-28T15:38:22;5.33;;;3.50;;
10277;SDS011;5184;51.376;7.148;2023-02-28T15:40:55;3.93;;;3.00;;
10277;SDS011;5184;51.376;7.148;2023-02-28T15:43:23;3.53;;;3.10;;
10277;SDS011;5184;51.376;7.148;2023-02-28T15:46:04;3.07;;;2.83;;
10277;SDS011;5184;51.376;7.148;2023-02-28T15:48:32;4.70;;;3.10;;
10277;SDS011;5184;51.376;7.148;2023-02-28T15:51:02;3.23;;;2.93;;
10277;SDS011;5184;51.376;7.148;2023-02-28T15:53:29;3.63;;;3.30;;
10277;SDS011;5184;51.376;7.148;2023-02-28T15:55:55;4.00;;;2.80;;
10277;SDS011;5184;51.376;7.148;2023-02-28T15:58:22;5.07;;;2.97;;
10277;SDS011;5184;51.376;7.148;2023-02-28T16:00:59;4.97;;;3.03;;
10277;SDS011;5184;51.376;7.148;2023-02-28T16:03:37;3.13;;;2.83;;
10277;SDS011;5184;51.376;7.148;2023-02-28T16:09:06;3.83;;;2.63;;
10277;SDS011;5184;51.376;7.148;2023-02-28T16:11:32;3.60;;;3.17;;
10277;SDS011;5184;51.376;7.148;2023-02-28T16:13:58;3.67;;;3.37;;
10277;SDS011;5184;51.376;7.148;2023-02-28T16:16:25;3.33;;;2.97;;
10277;SDS011;5184;51.376;7.148;2023-02-28T16:18:52;4.30;;;2.83;;